createdAt,value
2019-04-20T00:01:25.733Z,11.30
2019-04-20T00:03:50.703Z,11.20
2019-04-20T00:06:19.950Z,11.20
2019-04-20T00:08:55.717Z,11.30
2019-04-20T00:11:26.302Z,11.30
2019-04-20T00:13:59.388Z,11.30
2019-04-20T00:16:20.935Z,11.30
2019-04-20T00:18:53.911Z,11.20
2019-04-20T00:21:28.954Z,11.20
2019-04-20T00:24:01.080Z,11.20
2019-04-20T00:27:01.931Z,11.30
2019-04-20T00:29:21.701Z,11.40
2019-04-20T00:31:45.481Z,11.50
2019-04-20T00:34:08.959Z,11.70
2019-04-20T00:36:32.855Z,11.80
2019-04-20T00:39:05.978Z,11.80
2019-04-20T00:41:35.168Z,11.90
2019-04-20T00:44:09.417Z,11.90
2019-04-20T00:46:46.765Z,11.80
2019-04-20T00:49:17.613Z,11.80
2019-04-20T00:51:50.790Z,11.80
2019-04-20T00:54:03.991Z,11.80
2019-04-20T00:56:33.274Z,11.60
2019-04-20T00:59:14.530Z,11.50
2019-04-20T01:01:52.149Z,11.40
2019-04-20T01:04:20.271Z,11.40
2019-04-20T01:07:07.273Z,11.40
2019-04-20T01:09:39.477Z,11.30
2019-04-20T01:12:14.794Z,11.30
2019-04-20T01:14:47.033Z,11.30
2019-04-20T01:17:12.117Z,11.30
2019-04-20T01:19:38.459Z,11.10
2019-04-20T01:22:13.606Z,11.00
2019-04-20T01:24:43.080Z,11.00
2019-04-20T01:27:24.585Z,11.00
2019-04-20T01:29:45.712Z,10.90
2019-04-20T01:32:20.835Z,10.80
2019-04-20T01:34:50.809Z,10.70
2019-04-20T01:37:26.103Z,10.60
2019-04-20T01:39:48.291Z,10.50
2019-04-20T01:42:10.906Z,10.50
2019-04-20T01:44:44.052Z,10.40
2019-04-20T01:47:11.614Z,10.30
2019-04-20T01:49:41.957Z,10.30
2019-04-20T01:52:19.148Z,10.30
2019-04-20T01:54:56.430Z,10.20
2019-04-20T01:57:32.248Z,10.10
2019-04-20T02:00:22.620Z,10.00
2019-04-20T02:02:50.408Z,9.90
2019-04-20T02:05:21.415Z,9.80
2019-04-20T02:07:49.030Z,9.80
2019-04-20T02:10:18.287Z,9.70
2019-04-20T02:12:50.335Z,9.70
2019-04-20T02:15:23.801Z,9.70
2019-04-20T02:18:03.284Z,9.70
2019-04-20T02:20:37.915Z,9.70
2019-04-20T02:23:06.500Z,9.80
2019-04-20T02:25:18.631Z,9.80
2019-04-20T02:27:53.149Z,9.90
2019-04-20T02:33:34.823Z,10.10
2019-04-20T02:36:13.807Z,10.20
2019-04-20T02:38:53.921Z,10.30
2019-04-20T02:41:10.137Z,10.50
2019-04-20T02:43:48.427Z,10.60
2019-04-20T02:45:59.433Z,10.60
2019-04-20T02:48:29.849Z,10.60
2019-04-20T02:51:09.075Z,10.70
2019-04-20T02:53:44.815Z,10.70
2019-04-20T02:56:15.656Z,10.70
2019-04-20T02:58:41.596Z,10.70
2019-04-20T03:01:05.144Z,10.70
2019-04-20T03:03:20.279Z,10.50
2019-04-20T03:05:52.059Z,10.40
2019-04-20T03:08:26.578Z,10.40
2019-04-20T03:11:09.092Z,10.40
2019-04-20T03:13:33.424Z,10.30
2019-04-20T03:16:01.707Z,10.20
2019-04-20T03:18:31.116Z,10.20
2019-04-20T03:21:00.806Z,10.10
2019-04-20T03:23:35.565Z,10.00
2019-04-20T03:26:15.078Z,9.70
2019-04-20T03:28:58.892Z,9.40
2019-04-20T03:32:15.410Z,9.20
2019-04-20T03:34:51.496Z,9.10
2019-04-20T03:36:59.358Z,9.10
2019-04-20T03:39:25.933Z,9.20
2019-04-20T03:41:38.515Z,9.30
2019-04-20T03:44:08.969Z,9.30
2019-04-20T03:46:41.928Z,9.40
2019-04-20T03:49:20.250Z,9.30
2019-04-20T03:51:58.798Z,9.00
2019-04-20T03:54:34.603Z,8.90
2019-04-20T03:57:21.428Z,9.00
2019-04-20T03:59:56.204Z,9.10
2019-04-20T04:02:45.679Z,9.10
2019-04-20T04:05:17.669Z,9.10
2019-04-20T04:07:38.677Z,9.10
2019-04-20T04:10:17.185Z,9.10
2019-04-20T04:13:11.604Z,9.10
2019-04-20T04:15:48.304Z,9.00
2019-04-20T04:18:21.846Z,8.90
2019-04-20T04:20:52.044Z,8.90
2019-04-20T04:23:33.870Z,8.80
2019-04-20T04:26:05.736Z,8.90
2019-04-20T04:28:31.207Z,8.90
2019-04-20T04:31:07.834Z,8.90
2019-04-20T04:33:54.867Z,8.90
2019-04-20T04:36:03.104Z,8.90
2019-04-20T04:38:43.087Z,8.90
2019-04-20T04:41:17.068Z,8.90
2019-04-20T04:43:38.902Z,8.80
2019-04-20T04:45:48.883Z,8.80
2019-04-20T04:48:23.908Z,8.60
2019-04-20T04:50:56.095Z,8.50
2019-04-20T04:53:31.333Z,8.50
2019-04-20T04:55:56.459Z,8.60
2019-04-20T04:58:19.531Z,8.70
2019-04-20T05:00:49.324Z,8.80
2019-04-20T05:03:35.757Z,8.90
2019-04-20T05:06:08.914Z,8.90
2019-04-20T05:08:30.710Z,8.90
2019-04-20T05:10:52.039Z,9.00
2019-04-20T05:13:21.834Z,9.10
2019-04-20T05:16:05.231Z,9.10
2019-04-20T05:18:48.354Z,9.20
2019-04-20T05:21:11.914Z,9.20
2019-04-20T05:23:37.509Z,9.10
2019-04-20T05:26:22.277Z,9.10
2019-04-20T05:28:45.857Z,9.20
2019-04-20T05:31:06.869Z,9.20
2019-04-20T05:33:58.495Z,9.40
2019-04-20T05:36:24.658Z,9.40
2019-04-20T05:39:00.261Z,9.50
2019-04-20T05:41:21.511Z,9.60
2019-04-20T05:43:54.414Z,9.70
2019-04-20T05:49:06.722Z,9.80
2019-04-20T05:51:35.310Z,9.90
2019-04-20T05:54:02.599Z,10.00
2019-04-20T05:56:35.515Z,10.20
2019-04-20T05:58:59.496Z,10.40
2019-04-20T06:01:34.442Z,10.60
2019-04-20T06:03:59.158Z,10.80
2019-04-20T06:06:33.289Z,11.00
2019-04-20T06:09:05.269Z,11.20
2019-04-20T06:11:34.982Z,11.40
2019-04-20T06:14:06.794Z,11.60
2019-04-20T06:16:52.200Z,11.70
2019-04-20T06:19:25.866Z,11.90
2019-04-20T06:21:57.485Z,12.10
2019-04-20T06:24:33.461Z,12.30
2019-04-20T06:27:01.020Z,12.40
2019-04-20T06:29:22.141Z,12.60
2019-04-20T06:31:57.990Z,12.80
2019-04-20T06:34:34.358Z,13.00
2019-04-20T06:37:11.044Z,13.10
2019-04-20T06:39:40.416Z,13.30
2019-04-20T06:44:34.374Z,13.70
2019-04-20T06:47:11.664Z,13.80
2019-04-20T06:49:35.412Z,13.90
2019-04-20T06:52:17.161Z,14.00
2019-04-20T06:54:53.940Z,14.10
2019-04-20T06:57:29.232Z,14.20
2019-04-20T07:02:29.945Z,14.40
2019-04-20T07:04:57.563Z,14.50
2019-04-20T07:07:32.508Z,14.60
2019-04-20T07:12:27.342Z,14.90
2019-04-20T07:14:46.996Z,14.90
2019-04-20T07:17:43.938Z,15.00
2019-04-20T07:20:04.120Z,15.10
2019-04-20T07:22:46.213Z,15.10
2019-04-20T07:25:14.268Z,15.20
2019-04-20T07:27:50.853Z,15.40
2019-04-20T07:30:29.912Z,15.50
2019-04-20T07:32:54.913Z,15.60
2019-04-20T07:35:21.898Z,15.70
2019-04-20T07:38:08.881Z,15.80
2019-04-20T07:40:20.344Z,15.90
2019-04-20T07:42:51.842Z,16.00
2019-04-20T07:45:28.410Z,16.00
2019-04-20T07:47:59.141Z,16.00
2019-04-20T07:50:12.930Z,16.10
2019-04-20T07:52:43.029Z,16.30
2019-04-20T07:57:47.128Z,16.50
2019-04-20T08:00:27.541Z,16.60
2019-04-20T08:03:18.376Z,16.70
2019-04-20T08:05:36.478Z,16.80
2019-04-20T08:08:13.083Z,16.80
2019-04-20T08:10:47.146Z,16.90
2019-04-20T08:15:54.125Z,17.10
2019-04-20T08:18:21.335Z,17.10
2019-04-20T08:20:51.101Z,17.10
2019-04-20T08:23:17.119Z,17.20
2019-04-20T08:25:39.899Z,17.40
2019-04-20T08:28:21.431Z,17.50
2019-04-20T08:31:06.641Z,17.50
2019-04-20T08:33:55.465Z,17.50
2019-04-20T08:36:18.407Z,17.60
2019-04-20T08:39:06.852Z,17.60
2019-04-20T08:41:17.966Z,17.60
2019-04-20T08:43:54.016Z,17.70
2019-04-20T08:46:20.462Z,17.90
2019-04-20T08:48:50.993Z,18.10
2019-04-20T08:51:21.111Z,18.30
2019-04-20T08:53:51.818Z,18.40
2019-04-20T08:56:14.315Z,18.60
2019-04-20T08:58:36.154Z,18.70
2019-04-20T09:01:08.607Z,18.80
2019-04-20T09:03:48.733Z,18.90
2019-04-20T09:06:19.411Z,19.00
2019-04-20T09:08:47.750Z,19.10
2019-04-20T09:11:22.015Z,19.10
2019-04-20T09:13:43.094Z,19.20
2019-04-20T09:16:08.445Z,19.20
2019-04-20T09:18:48.003Z,19.40
2019-04-20T09:21:22.164Z,19.50
2019-04-20T09:23:57.632Z,19.70
2019-04-20T09:26:32.887Z,19.80
2019-04-20T09:28:59.194Z,20.00
2019-04-20T09:31:39.321Z,20.20
2019-04-20T09:34:20.337Z,20.70
2019-04-20T09:37:11.289Z,21.80
2019-04-20T09:39:33.556Z,23.10
2019-04-20T09:42:12.391Z,24.30
2019-04-20T09:44:46.028Z,25.00
2019-04-20T09:47:12.334Z,25.60
2019-04-20T09:49:52.892Z,25.70
2019-04-20T09:52:27.020Z,25.40
2019-04-20T09:54:59.356Z,24.80
2019-04-20T09:57:33.504Z,24.30
2019-04-20T10:00:01.763Z,23.70
2019-04-20T10:02:20.144Z,23.10
2019-04-20T10:04:43.939Z,22.60
2019-04-20T10:07:17.601Z,22.30
2019-04-20T10:09:45.289Z,22.00
2019-04-20T10:12:14.019Z,22.00
2019-04-20T10:14:42.789Z,22.20
2019-04-20T10:17:11.893Z,22.80
2019-04-20T10:19:41.818Z,23.20
2019-04-20T10:22:10.957Z,23.20
2019-04-20T10:24:39.422Z,23.10
2019-04-20T10:27:08.413Z,22.90
2019-04-20T10:29:37.570Z,22.70
2019-04-20T10:32:07.892Z,22.40
2019-04-20T10:34:36.787Z,22.40
2019-04-20T10:37:07.352Z,22.40
2019-04-20T10:39:38.506Z,22.40
2019-04-20T10:42:08.106Z,22.10
2019-04-20T10:44:37.077Z,22.00
2019-04-20T10:47:07.117Z,22.10
2019-04-20T10:49:38.271Z,22.20
2019-04-20T10:52:07.604Z,22.30
2019-04-20T10:54:36.587Z,22.30
2019-04-20T10:57:05.718Z,22.20
2019-04-20T10:59:34.395Z,22.10
2019-04-20T11:02:03.574Z,22.20
2019-04-20T11:04:32.738Z,22.30
2019-04-20T11:07:02.729Z,22.50
2019-04-20T11:09:32.445Z,22.50
2019-04-20T11:12:04.089Z,22.60
2019-04-20T11:14:36.680Z,22.60
2019-04-20T11:17:04.340Z,22.60
2019-04-20T11:19:33.601Z,22.70
2019-04-20T11:22:02.589Z,22.90
2019-04-20T11:24:32.248Z,23.10
2019-04-20T11:27:00.877Z,23.00
2019-04-20T11:29:29.639Z,23.00
2019-04-20T11:31:59.362Z,22.90
2019-04-20T11:34:31.967Z,22.90
2019-04-20T11:36:59.248Z,22.80
2019-04-20T11:39:29.257Z,22.90
2019-04-20T11:41:57.781Z,23.00
2019-04-20T11:44:29.419Z,22.90
2019-04-20T11:46:56.756Z,22.90
2019-04-20T11:49:25.732Z,23.00
2019-04-20T11:51:55.307Z,23.20
2019-04-20T11:54:24.384Z,23.30
2019-04-20T11:56:53.287Z,23.30
2019-04-20T11:59:23.147Z,23.30
2019-04-20T12:02:03.673Z,23.40
2019-04-20T12:04:44.216Z,23.50
2019-04-20T12:07:09.013Z,23.80
2019-04-20T12:09:37.790Z,23.80
2019-04-20T12:12:16.824Z,23.80
2019-04-20T12:14:36.806Z,23.70
2019-04-20T12:17:05.869Z,23.80
2019-04-20T12:19:36.226Z,23.70
2019-04-20T12:22:05.601Z,23.60
2019-04-20T12:24:34.385Z,23.30
2019-04-20T12:27:03.098Z,23.40
2019-04-20T12:29:32.102Z,23.40
2019-04-20T12:32:02.326Z,23.60
2019-04-20T12:34:31.588Z,23.80
2019-04-20T12:37:00.764Z,24.10
2019-04-20T12:39:29.387Z,24.10
2019-04-20T12:42:02.137Z,24.20
2019-04-20T12:44:29.755Z,24.30
2019-04-20T12:46:59.615Z,24.70
2019-04-20T12:49:29.612Z,25.10
2019-04-20T12:52:01.494Z,25.30
2019-04-20T12:54:29.027Z,25.10
2019-04-20T12:56:58.577Z,25.20
2019-04-20T12:59:27.644Z,25.30
2019-04-20T13:01:57.484Z,25.30
2019-04-20T13:04:26.841Z,25.30
2019-04-20T13:06:57.579Z,25.10
2019-04-20T13:09:30.499Z,24.80
2019-04-20T13:12:11.987Z,24.60
2019-04-20T13:14:53.017Z,24.70
2019-04-20T13:17:22.140Z,24.80
2019-04-20T13:19:51.248Z,25.00
2019-04-20T13:22:21.127Z,24.90
2019-04-20T13:24:49.739Z,25.20
2019-04-20T13:27:18.742Z,25.80
2019-04-20T13:29:50.499Z,26.30
2019-04-20T13:32:18.102Z,26.90
2019-04-20T13:34:46.884Z,27.40
2019-04-20T13:37:16.005Z,28.60
2019-04-20T13:39:44.864Z,29.70
2019-04-20T13:42:20.257Z,30.60
2019-04-20T13:44:43.513Z,31.30
2019-04-20T13:47:12.807Z,31.70
2019-04-20T13:49:41.378Z,32.20
2019-04-20T13:52:10.804Z,32.70
2019-04-20T13:54:40.072Z,33.20
2019-04-20T13:57:11.152Z,33.10
2019-04-20T13:59:41.932Z,32.90
2019-04-20T14:02:28.876Z,33.00
2019-04-20T14:04:59.257Z,32.90
2019-04-20T14:07:29.256Z,32.70
2019-04-20T14:09:59.398Z,32.60
2019-04-20T14:12:32.437Z,32.60
2019-04-20T14:14:59.467Z,32.20
2019-04-20T14:17:29.004Z,31.80
2019-04-20T14:19:57.555Z,31.30
2019-04-20T14:22:27.213Z,31.10
2019-04-20T14:24:57.216Z,30.50
2019-04-20T14:27:26.688Z,30.30
2019-04-20T14:29:55.562Z,30.10
2019-04-20T14:32:24.979Z,29.50
2019-04-20T14:34:53.528Z,29.20
2019-04-20T14:37:22.668Z,28.70
2019-04-20T14:39:52.347Z,28.50
2019-04-20T14:42:30.221Z,28.60
2019-04-20T14:44:52.089Z,28.50
2019-04-20T14:47:21.718Z,28.60
2019-04-20T14:49:50.577Z,28.40
2019-04-20T14:52:19.613Z,28.30
2019-04-20T14:54:49.492Z,28.40
2019-04-20T14:57:19.302Z,28.60
2019-04-20T14:59:49.590Z,28.80
2019-04-20T15:02:19.465Z,28.80
2019-04-20T15:04:50.275Z,28.80
2019-04-20T15:07:18.912Z,28.30
2019-04-20T15:09:48.725Z,28.10
2019-04-20T15:12:17.379Z,28.20
2019-04-20T15:14:46.824Z,28.20
2019-04-20T15:17:17.422Z,28.20
2019-04-20T15:19:47.646Z,28.10
2019-04-20T15:22:33.782Z,28.10
2019-04-20T15:25:03.321Z,28.00
2019-04-20T15:27:33.114Z,27.90
2019-04-20T15:30:02.736Z,27.80
2019-04-20T15:32:31.442Z,27.70
2019-04-20T15:35:00.699Z,27.50
2019-04-20T15:37:29.346Z,27.40
2019-04-20T15:39:58.977Z,27.30
2019-04-20T15:42:27.779Z,27.00
2019-04-20T15:44:57.609Z,26.90
2019-04-20T15:47:27.821Z,26.80
2019-04-20T15:49:57.969Z,26.70
2019-04-20T15:52:33.580Z,26.60
2019-04-20T15:54:56.851Z,26.40
2019-04-20T15:57:29.056Z,26.20
2019-04-20T15:59:56.174Z,26.20
2019-04-20T16:02:27.345Z,26.40
2019-04-20T16:05:08.172Z,26.50
2019-04-20T16:07:39.174Z,26.50
2019-04-20T16:10:07.483Z,26.30
2019-04-20T16:12:35.974Z,26.20
2019-04-20T16:15:07.450Z,26.00
2019-04-20T16:17:39.162Z,26.00
2019-04-20T16:20:12.535Z,26.00
2019-04-20T16:22:38.523Z,25.80
2019-04-20T16:25:14.889Z,25.80
2019-04-20T16:27:45.502Z,25.80
2019-04-20T16:30:15.652Z,25.70
2019-04-20T16:32:44.858Z,25.60
2019-04-20T16:35:14.090Z,25.40
2019-04-20T16:37:42.741Z,25.20
2019-04-20T16:40:11.818Z,25.00
2019-04-20T16:42:42.209Z,24.90
2019-04-20T16:45:11.607Z,24.60
2019-04-20T16:47:42.155Z,24.40
2019-04-20T16:50:11.089Z,24.20
2019-04-20T16:52:40.979Z,24.10
2019-04-20T16:55:11.269Z,24.00
2019-04-20T16:57:40.107Z,23.90
2019-04-20T17:00:09.463Z,23.70
2019-04-20T17:02:38.298Z,23.60
2019-04-20T17:05:07.320Z,23.60
2019-04-20T17:07:37.539Z,23.50
2019-04-20T17:10:09.646Z,23.40
2019-04-20T17:12:39.792Z,23.30
2019-04-20T17:15:09.849Z,23.10
2019-04-20T17:17:39.819Z,22.90
2019-04-20T17:20:11.479Z,22.90
2019-04-20T17:22:40.383Z,22.80
2019-04-20T17:25:10.162Z,22.70
2019-04-20T17:27:57.295Z,22.50
2019-04-20T17:30:47.433Z,22.40
2019-04-20T17:33:24.048Z,22.20
2019-04-20T17:35:57.256Z,22.00
2019-04-20T17:38:20.569Z,21.80
2019-04-20T17:41:02.935Z,21.70
2019-04-20T17:43:28.480Z,21.50
2019-04-20T17:45:57.845Z,21.30
2019-04-20T17:48:33.791Z,21.10
2019-04-20T17:51:11.137Z,21.00
2019-04-20T17:53:37.713Z,20.90
2019-04-20T17:55:57.183Z,20.80
2019-04-20T17:58:30.888Z,20.60
2019-04-20T18:00:59.918Z,20.50
2019-04-20T18:04:11.058Z,20.40
2019-04-20T18:06:33.574Z,20.30
2019-04-20T18:09:00.284Z,20.10
2019-04-20T18:11:18.440Z,20.00
2019-04-20T18:13:45.920Z,19.90
2019-04-20T18:16:46.820Z,19.90
2019-04-20T18:19:13.909Z,19.80
2019-04-20T18:21:41.580Z,19.70
2019-04-20T18:24:15.697Z,19.50
2019-04-20T18:26:58.780Z,19.40
2019-04-20T18:29:32.278Z,19.30
2019-04-20T18:31:53.326Z,19.20
2019-04-20T18:34:28.965Z,19.10
2019-04-20T18:37:00.637Z,19.00
2019-04-20T18:39:34.002Z,18.80
2019-04-20T18:42:10.073Z,18.70
2019-04-20T18:44:46.112Z,18.60
2019-04-20T18:47:18.653Z,18.40
2019-04-20T18:49:43.102Z,18.30
2019-04-20T18:51:59.702Z,18.10
2019-04-20T18:54:32.800Z,18.00
2019-04-20T18:56:59.795Z,17.90
2019-04-20T18:59:31.880Z,17.80
2019-04-20T19:01:59.215Z,17.70
2019-04-20T19:04:28.271Z,17.50
2019-04-20T19:06:57.422Z,17.40
2019-04-20T19:09:30.140Z,17.30
2019-04-20T19:12:02.558Z,17.20
2019-04-20T19:14:40.861Z,17.10
2019-04-20T19:17:38.954Z,16.90
2019-04-20T19:20:04.103Z,16.80
2019-04-20T19:22:35.518Z,16.70
2019-04-20T19:25:03.427Z,16.60
2019-04-20T19:27:39.969Z,16.60
2019-04-20T19:30:16.853Z,16.50
2019-04-20T19:32:45.221Z,16.40
2019-04-20T19:35:14.498Z,16.30
2019-04-20T19:37:48.652Z,16.20
2019-04-20T19:40:16.156Z,16.10
2019-04-20T19:42:49.014Z,16.00
2019-04-20T19:45:32.288Z,16.00
2019-04-20T19:47:58.309Z,16.00
2019-04-20T19:50:35.698Z,16.00
2019-04-20T19:53:11.164Z,15.90
2019-04-20T19:55:27.565Z,15.70
2019-04-20T19:57:59.388Z,15.60
2019-04-20T20:00:14.688Z,15.40
2019-04-20T20:02:43.563Z,15.20
2019-04-20T20:05:16.297Z,15.10
2019-04-20T20:07:46.353Z,15.10
2019-04-20T20:10:14.619Z,15.00
2019-04-20T20:12:50.528Z,15.00
2019-04-20T20:15:22.304Z,14.90
2019-04-20T20:18:04.749Z,14.90
2019-04-20T20:20:36.069Z,14.90
2019-04-20T20:22:49.870Z,14.90
2019-04-20T20:25:15.274Z,14.90
2019-04-20T20:27:51.225Z,14.90
2019-04-20T20:30:23.385Z,14.90
2019-04-20T20:33:01.093Z,14.80
2019-04-20T20:35:21.863Z,14.70
2019-04-20T20:37:53.449Z,14.60
2019-04-20T20:40:24.808Z,14.70
2019-04-20T20:42:56.549Z,14.70
2019-04-20T20:45:26.229Z,14.70
2019-04-20T20:48:07.794Z,14.60
2019-04-20T20:50:37.566Z,14.60
2019-04-20T20:53:00.769Z,14.60
2019-04-20T20:55:29.198Z,14.60
2019-04-20T20:58:00.869Z,14.40
2019-04-20T21:00:32.017Z,14.30
2019-04-20T21:02:58.504Z,14.20
2019-04-20T21:05:20.164Z,14.20
2019-04-20T21:07:51.240Z,14.10
2019-04-20T21:10:28.592Z,14.00
2019-04-20T21:12:55.804Z,14.00
2019-04-20T21:15:22.775Z,13.90
2019-04-20T21:18:15.628Z,13.80
2019-04-20T21:20:42.311Z,13.80
2019-04-20T21:23:07.351Z,13.70
2019-04-20T21:25:33.462Z,13.70
2019-04-20T21:27:55.209Z,13.60
2019-04-20T21:30:32.406Z,13.60
2019-04-20T21:32:59.119Z,13.50
2019-04-20T21:35:24.048Z,13.40
2019-04-20T21:37:59.075Z,13.40
2019-04-20T21:40:31.459Z,13.40
2019-04-20T21:42:59.246Z,13.30
2019-04-20T21:45:30.066Z,13.30
2019-04-20T21:47:54.596Z,13.20
2019-04-20T21:50:36.907Z,13.20
2019-04-20T21:52:58.712Z,13.20
2019-04-20T21:55:25.809Z,13.10
2019-04-20T21:57:58.374Z,13.00
2019-04-20T22:00:42.593Z,13.00
2019-04-20T22:03:11.249Z,12.90
2019-04-20T22:05:40.181Z,12.80
2019-04-20T22:08:12.464Z,12.70
2019-04-20T22:10:40.782Z,12.50
2019-04-20T22:13:10.027Z,12.30
2019-04-20T22:15:46.690Z,12.20
2019-04-20T22:18:12.610Z,12.20
2019-04-20T22:20:52.207Z,12.30
2019-04-20T22:23:23.292Z,12.30
2019-04-20T22:25:56.300Z,12.30
2019-04-20T22:28:09.832Z,12.30
2019-04-20T22:30:38.290Z,12.10
2019-04-20T22:33:17.540Z,12.00
2019-04-20T22:35:52.990Z,12.00
2019-04-20T22:38:23.044Z,12.00
2019-04-20T22:40:52.448Z,12.00
2019-04-20T22:43:26.214Z,12.00
2019-04-20T22:45:53.994Z,11.90
2019-04-20T22:48:22.923Z,11.90
2019-04-20T22:51:14.229Z,11.90
2019-04-20T22:53:35.592Z,11.80
2019-04-20T22:56:15.261Z,11.60
2019-04-20T22:58:38.459Z,11.50
2019-04-20T23:00:57.851Z,11.40
2019-04-20T23:03:23.090Z,11.30
2019-04-20T23:05:51.537Z,11.30
2019-04-20T23:08:20.431Z,11.40
2019-04-20T23:10:49.787Z,11.50
2019-04-20T23:13:21.162Z,11.50
2019-04-20T23:15:53.084Z,11.40
2019-04-20T23:18:20.132Z,11.40
2019-04-20T23:20:50.083Z,11.40
2019-04-20T23:23:23.696Z,11.40
2019-04-20T23:25:49.338Z,11.40
2019-04-20T23:28:20.882Z,11.30
2019-04-20T23:30:51.881Z,11.30
2019-04-20T23:33:20.055Z,11.20
2019-04-20T23:35:54.482Z,11.10
2019-04-20T23:38:21.468Z,11.00
2019-04-20T23:40:50.011Z,11.00
2019-04-20T23:43:25.395Z,11.00
2019-04-20T23:46:01.178Z,10.90
2019-04-20T23:48:42.735Z,10.90
2019-04-20T23:51:29.223Z,10.90
2019-04-20T23:53:52.170Z,10.90
2019-04-20T23:56:13.970Z,10.80
2019-04-20T23:58:44.078Z,10.70
